Time;durP1;ratioP1;P1;durP2;ratioP2;P2;SDS_P1;SDS_P2;PMS_P1;PMS_P2;Temp;Humidity;BMP_temperature;BMP_pressure;BME280_temperature;BME280_humidity;BME280_pressure;Samples;Min_cycle;Max_cycle;Signal;HPM_P1;HPM_P2
2022/01/06 00:00:46;;;;;;;4.60;1.50;;;22.00;30.80;;;;;;5053865;28;20098;-48
2022/01/06 00:03:12;;;;;;;2.35;1.10;;;22.00;30.80;;;;;;5054620;28;20052;-52
2022/01/06 00:05:37;;;;;;;3.50;1.50;;;22.00;30.80;;;;;;5055067;28;20032;-50
2022/01/06 00:08:03;;;;;;;3.00;1.27;;;22.00;30.80;;;;;;5053904;28;20463;-54
2022/01/06 00:10:31;;;;;;;3.08;1.50;;;22.00;30.80;;;;;;5054220;28;20017;-51
2022/01/06 00:15:31;;;;;;;3.00;1.23;;;22.00;30.80;;;;;;5054609;28;20104;-54
2022/01/06 00:25:50;;;;;;;2.75;1.05;;;21.90;30.80;;;;;;5054006;28;20028;-51
2022/01/06 00:28:16;;;;;;;3.42;1.38;;;21.90;30.80;;;;;;5053533;28;20406;-51
2022/01/06 00:30:42;;;;;;;4.35;1.58;;;21.90;30.80;;;;;;5054462;28;20021;-51
2022/01/06 00:33:08;;;;;;;2.60;1.30;;;21.90;30.80;;;;;;5054252;28;20025;-48
2022/01/06 00:35:34;;;;;;;3.03;1.40;;;21.90;30.80;;;;;;5036709;28;20383;-56
2022/01/06 00:38:01;;;;;;;5.72;1.38;;;21.90;30.70;;;;;;5054228;28;20021;-58
2022/01/06 00:40:27;;;;;;;3.20;1.05;;;21.90;30.70;;;;;;5054621;28;20108;-47
2022/01/06 00:42:53;;;;;;;2.45;1.05;;;21.90;30.70;;;;;;5054883;28;20017;-53
2022/01/06 00:45:19;;;;;;;2.88;1.25;;;21.90;30.80;;;;;;5052944;28;20033;-49
2022/01/06 00:47:45;;;;;;;3.22;1.10;;;21.90;30.80;;;;;;5054250;28;20134;-49
2022/01/06 00:50:11;;;;;;;4.43;1.25;;;21.90;30.80;;;;;;5053721;28;20032;-53
2022/01/06 00:52:37;;;;;;;4.45;1.30;;;21.80;30.70;;;;;;5054146;28;20074;-49
2022/01/06 00:55:03;;;;;;;3.25;1.40;;;21.80;30.70;;;;;;5053282;28;20605;-51
2022/01/06 00:57:29;;;;;;;2.80;1.10;;;21.80;30.70;;;;;;5053810;28;20111;-47
2022/01/06 00:59:55;;;;;;;3.85;1.42;;;21.80;30.70;;;;;;5053556;28;22033;-48
2022/01/06 01:02:21;;;;;;;2.78;0.93;;;21.80;30.70;;;;;;5053439;28;20024;-50
2022/01/06 01:04:47;;;;;;;3.67;1.05;;;21.80;30.70;;;;;;5054176;28;20036;-49
2022/01/06 01:07:13;;;;;;;2.72;0.90;;;21.80;30.70;;;;;;5051689;28;20033;-52
2022/01/06 01:09:39;;;;;;;3.45;1.05;;;21.80;30.70;;;;;;5053864;28;20048;-51
2022/01/06 01:12:06;;;;;;;2.78;1.17;;;21.80;30.70;;;;;;5053464;28;20478;-47
2022/01/06 01:14:43;;;;;;;2.78;1.13;;;21.80;30.70;;;;;;5053768;28;20029;-49
2022/01/06 01:17:13;;;;;;;3.70;1.30;;;21.80;30.80;;;;;;5053548;28;20116;-49
2022/01/06 01:19:39;;;;;;;2.25;0.98;;;21.80;30.70;;;;;;5053387;28;20033;-52
2022/01/06 01:22:05;;;;;;;3.58;1.33;;;21.80;30.70;;;;;;5053606;28;20364;-50
2022/01/06 01:24:31;;;;;;;3.03;1.05;;;21.80;30.70;;;;;;5053334;28;20028;-50
2022/01/06 01:26:57;;;;;;;2.85;1.13;;;21.80;30.70;;;;;;5053423;28;20032;-49
2022/01/06 01:29:23;;;;;;;3.50;1.20;;;21.70;30.60;;;;;;5053448;28;20033;-50
2022/01/06 01:31:54;;;;;;;3.17;0.90;;;21.70;30.60;;;;;;5053045;28;20041;-50
2022/01/06 01:34:24;;;;;;;3.35;1.25;;;21.70;30.70;;;;;;5053312;28;20033;-49
2022/01/06 01:36:52;;;;;;;4.88;1.15;;;21.70;30.60;;;;;;5052904;28;20033;-53
2022/01/06 01:39:18;;;;;;;2.65;1.10;;;21.70;30.60;;;;;;5053609;28;20095;-54
2022/01/06 01:41:44;;;;;;;3.25;1.50;;;21.80;30.70;;;;;;5053278;28;20049;-53
2022/01/06 01:44:15;;;;;;;2.58;1.08;;;21.70;30.60;;;;;;5049903;28;20100;-52
2022/01/06 01:46:45;;;;;;;2.63;1.40;;;21.70;30.60;;;;;;5053267;28;20104;-48
2022/01/06 01:51:45;;;;;;;2.92;0.88;;;21.70;30.60;;;;;;5052429;28;20471;-50
2022/01/06 01:54:11;;;;;;;2.10;0.77;;;21.70;30.60;;;;;;5053276;28;20025;-45
2022/01/06 01:56:37;;;;;;;2.75;0.98;;;21.70;30.60;;;;;;5052965;28;20033;-50
2022/01/06 01:59:04;;;;;;;2.55;0.93;;;21.70;30.60;;;;;;5052972;28;20086;-50
2022/01/06 02:01:30;;;;;;;2.10;0.95;;;21.70;30.60;;;;;;5052791;28;20025;-50
2022/01/06 02:03:56;;;;;;;2.15;1.00;;;21.70;30.60;;;;;;5035473;28;20352;-47
2022/01/06 02:06:23;;;;;;;1.92;0.82;;;21.70;30.60;;;;;;5052907;28;20025;-50
2022/01/06 02:08:51;;;;;;;2.08;0.77;;;21.60;30.60;;;;;;5052999;28;20033;-54
2022/01/06 02:11:17;;;;;;;2.13;0.75;;;21.60;30.60;;;;;;5052498;28;20464;-53
2022/01/06 02:13:50;;;;;;;2.05;0.77;;;21.60;30.60;;;;;;5053136;28;20360;-54
2022/01/06 02:16:21;;;;;;;3.67;1.03;;;21.60;30.60;;;;;;5053153;28;20017;-49
2022/01/06 02:18:47;;;;;;;3.17;1.10;;;21.60;30.50;;;;;;5052419;28;20343;-57
2022/01/06 02:21:13;;;;;;;3.58;0.85;;;21.60;30.50;;;;;;5052799;28;20091;-53
2022/01/06 02:23:39;;;;;;;3.80;1.20;;;21.60;30.60;;;;;;5052726;28;20336;-50
2022/01/06 02:26:05;;;;;;;3.20;0.90;;;21.60;30.50;;;;;;5052784;28;20428;-52
2022/01/06 02:28:30;;;;;;;2.70;1.13;;;21.60;30.50;;;;;;5052826;28;20031;-50
2022/01/06 02:30:58;;;;;;;2.65;1.08;;;21.60;30.60;;;;;;5051220;28;20021;-50
2022/01/06 02:33:24;;;;;;;3.28;0.93;;;21.60;30.60;;;;;;5056283;28;20075;-47
2022/01/06 02:35:54;;;;;;;2.47;1.20;;;21.50;30.50;;;;;;5056454;28;20328;-47
2022/01/06 02:38:20;;;;;;;2.95;1.13;;;21.60;30.60;;;;;;5056855;28;20037;-53
2022/01/06 02:40:47;;;;;;;2.22;0.90;;;21.50;30.50;;;;;;5053713;28;20448;-51
2022/01/06 02:43:17;;;;;;;4.07;1.00;;;21.50;30.50;;;;;;5056661;28;20055;-51
2022/01/06 02:45:44;;;;;;;3.92;1.08;;;21.50;30.50;;;;;;5055283;28;20025;-53
2022/01/06 02:48:10;;;;;;;2.05;0.82;;;21.50;30.50;;;;;;5056590;28;20078;-47
2022/01/06 02:50:41;;;;;;;2.08;0.95;;;21.50;30.50;;;;;;5038578;28;20017;-46
2022/01/06 02:53:09;;;;;;;2.72;1.00;;;21.50;30.50;;;;;;5056216;28;20021;-49
2022/01/06 02:55:38;;;;;;;3.28;0.93;;;21.50;30.50;;;;;;5053968;28;20045;-47
2022/01/06 02:58:04;;;;;;;2.75;0.90;;;21.50;30.50;;;;;;5055803;28;20340;-46
2022/01/06 03:00:30;;;;;;;1.95;0.73;;;21.50;30.50;;;;;;5055852;28;20028;-48
2022/01/06 03:02:56;;;;;;;2.88;1.25;;;21.50;30.60;;;;;;5055904;28;20044;-48
2022/01/06 03:05:21;;;;;;;3.03;1.02;;;21.50;30.60;;;;;;5055963;28;20024;-47
2022/01/06 03:07:47;;;;;;;3.40;1.10;;;21.50;30.60;;;;;;5055765;28;20363;-49
2022/01/06 03:10:16;;;;;;;3.95;1.10;;;21.50;30.60;;;;;;5053304;28;20025;-54
2022/01/06 03:12:43;;;;;;;2.85;0.90;;;21.40;30.50;;;;;;5055998;28;20071;-52
2022/01/06 03:15:13;;;;;;;2.63;1.05;;;21.40;30.50;;;;;;5055440;28;20017;-51
2022/01/06 03:17:41;;;;;;;1.67;0.57;;;21.40;30.50;;;;;;5056192;28;20491;-50
2022/01/06 03:20:10;;;;;;;2.50;0.95;;;21.40;30.50;;;;;;5054878;28;20033;-53
2022/01/06 03:22:36;;;;;;;1.92;0.68;;;21.40;30.50;;;;;;5055511;28;20093;-49
2022/01/06 03:25:03;;;;;;;1.80;0.90;;;21.40;30.60;;;;;;5054858;28;20020;-48
2022/01/06 03:27:29;;;;;;;2.28;0.90;;;21.40;30.50;;;;;;5056052;28;20017;-49
2022/01/06 03:29:55;;;;;;;1.85;0.90;;;21.40;30.60;;;;;;5055453;28;20336;-51
2022/01/06 03:32:21;;;;;;;2.10;0.82;;;21.40;30.50;;;;;;5055621;28;20032;-47
2022/01/06 03:34:47;;;;;;;2.10;0.80;;;21.40;30.50;;;;;;5055264;28;20029;-49
2022/01/06 03:37:14;;;;;;;2.67;1.00;;;21.40;30.50;;;;;;5055373;28;20040;-53
2022/01/06 03:39:41;;;;;;;2.33;0.70;;;21.40;30.50;;;;;;5055318;28;20433;-49
2022/01/06 03:42:07;;;;;;;3.58;1.30;;;21.40;30.60;;;;;;5055975;28;20059;-51
2022/01/06 03:44:33;;;;;;;2.13;0.82;;;21.40;30.60;;;;;;5054538;28;20021;-48
2022/01/06 03:46:58;;;;;;;2.70;1.00;;;21.40;30.60;;;;;;5044567;28;20036;-53
2022/01/06 03:49:24;;;;;;;2.75;0.88;;;21.40;30.60;;;;;;5046778;28;20033;-45
2022/01/06 03:51:50;;;;;;;2.47;1.02;;;21.40;30.50;;;;;;5045664;28;20037;-50
2022/01/06 03:54:16;;;;;;;3.47;1.05;;;21.40;30.50;;;;;;5038293;28;20025;-50
2022/01/06 03:56:42;;;;;;;2.20;0.93;;;21.40;30.60;;;;;;5045299;28;20040;-47
2022/01/06 03:59:07;;;;;;;1.42;0.70;;;21.40;30.50;;;;;;5045865;28;20033;-47
2022/01/06 04:01:34;;;;;;;2.08;0.75;;;21.40;30.50;;;;;;5047620;28;20119;-47
2022/01/06 04:03:59;;;;;;;2.42;0.98;;;21.30;30.50;;;;;;5048734;28;20029;-48
2022/01/06 04:06:26;;;;;;;1.75;0.75;;;21.30;30.50;;;;;;5040409;28;20029;-49
2022/01/06 04:08:52;;;;;;;1.65;0.52;;;21.30;30.50;;;;;;5053104;28;20425;-49
2022/01/06 04:11:18;;;;;;;2.05;0.80;;;21.30;30.50;;;;;;5055298;28;20051;-45
2022/01/06 04:13:44;;;;;;;4.00;0.98;;;21.30;30.50;;;;;;5054990;28;20476;-50
2022/01/06 04:16:11;;;;;;;3.30;1.10;;;21.30;30.50;;;;;;5054861;28;20029;-52
2022/01/06 04:18:37;;;;;;;3.50;1.27;;;21.30;30.50;;;;;;5054742;28;20037;-50
2022/01/06 04:21:04;;;;;;;2.80;1.10;;;21.30;30.50;;;;;;5054318;28;20043;-51
2022/01/06 04:23:29;;;;;;;2.15;0.73;;;21.30;30.50;;;;;;5054501;28;20151;-53
2022/01/06 04:25:55;;;;;;;2.13;0.88;;;21.30;30.40;;;;;;5054722;28;20125;-49
2022/01/06 04:28:21;;;;;;;2.60;0.80;;;21.30;30.40;;;;;;5053467;28;20055;-53
2022/01/06 04:30:47;;;;;;;2.35;0.88;;;21.30;30.50;;;;;;5054063;28;20032;-50
2022/01/06 04:33:12;;;;;;;2.72;1.08;;;21.30;30.50;;;;;;5036583;28;20336;-46
2022/01/06 04:35:38;;;;;;;2.75;0.70;;;21.20;30.40;;;;;;5054556;28;20319;-47
2022/01/06 04:38:04;;;;;;;2.33;0.80;;;21.30;30.50;;;;;;5054068;28;20451;-53
2022/01/06 04:40:29;;;;;;;2.67;0.90;;;21.20;30.40;;;;;;5054517;28;20332;-51
2022/01/06 04:42:55;;;;;;;1.85;0.90;;;21.30;30.50;;;;;;5054469;28;20435;-52
2022/01/06 04:45:21;;;;;;;2.60;0.73;;;21.20;30.40;;;;;;5054307;28;20431;-54
2022/01/06 04:47:47;;;;;;;2.45;0.85;;;21.20;30.40;;;;;;5054333;28;20340;-52
2022/01/06 04:50:12;;;;;;;2.47;0.73;;;21.20;30.40;;;;;;5054172;28;20021;-53
2022/01/06 04:52:38;;;;;;;1.80;0.63;;;21.20;30.40;;;;;;5054048;28;20039;-55
2022/01/06 04:55:05;;;;;;;2.33;0.82;;;21.20;30.40;;;;;;5053338;28;20049;-50
2022/01/06 04:57:31;;;;;;;1.60;0.75;;;21.20;30.40;;;;;;5051881;28;20017;-48
2022/01/06 04:59:57;;;;;;;2.15;0.77;;;21.20;30.40;;;;;;5053574;28;20060;-52
2022/01/06 05:02:23;;;;;;;2.22;0.60;;;21.20;30.40;;;;;;5053877;28;20024;-46
2022/01/06 05:04:48;;;;;;;3.38;1.10;;;21.20;30.40;;;;;;5053929;28;20082;-49
2022/01/06 05:07:14;;;;;;;1.90;0.70;;;21.20;30.40;;;;;;5053883;28;20025;-52
2022/01/06 05:09:40;;;;;;;1.45;0.75;;;21.20;30.40;;;;;;5053988;28;20083;-49
2022/01/06 05:12:06;;;;;;;2.92;0.73;;;21.20;30.40;;;;;;5053136;28;20044;-48
2022/01/06 05:14:32;;;;;;;2.05;0.70;;;21.20;30.50;;;;;;5053759;28;20059;-52
2022/01/06 05:16:59;;;;;;;2.10;0.95;;;21.20;30.50;;;;;;5053181;28;20060;-56
2022/01/06 05:19:26;;;;;;;1.40;0.70;;;21.20;30.50;;;;;;5052903;28;20036;-52
2022/01/06 05:21:53;;;;;;;2.22;0.85;;;21.20;30.50;;;;;;5053884;28;20025;-52
2022/01/06 05:24:19;;;;;;;2.70;0.70;;;21.20;30.50;;;;;;5035261;28;20029;-46
2022/01/06 05:26:45;;;;;;;3.60;0.90;;;21.10;30.40;;;;;;5053542;28;20078;-50
2022/01/06 05:29:13;;;;;;;1.65;0.60;;;21.10;30.40;;;;;;5053152;28;20028;-54
2022/01/06 05:31:39;;;;;;;1.48;0.80;;;21.10;30.40;;;;;;5053266;28;20025;-54
2022/01/06 05:34:06;;;;;;;2.25;0.80;;;21.10;30.50;;;;;;5053317;28;20163;-50
2022/01/06 05:36:33;;;;;;;2.53;0.93;;;21.10;30.40;;;;;;5053292;28;20340;-48
2022/01/06 05:39:00;;;;;;;2.78;0.80;;;21.10;30.40;;;;;;5053184;28;20016;-49
2022/01/06 05:41:26;;;;;;;2.50;0.93;;;21.10;30.50;;;;;;5053421;28;20421;-51
2022/01/06 05:43:52;;;;;;;2.83;0.82;;;21.10;30.40;;;;;;5053286;28;20025;-53
2022/01/06 05:46:18;;;;;;;3.40;0.70;;;21.10;30.40;;;;;;5053097;28;20027;-48
2022/01/06 05:48:45;;;;;;;1.90;0.75;;;21.10;30.40;;;;;;5052386;28;20344;-51
2022/01/06 05:51:11;;;;;;;2.45;0.80;;;21.10;30.40;;;;;;5053291;28;20021;-50
2022/01/06 05:53:37;;;;;;;2.28;0.70;;;21.10;30.40;;;;;;5035083;28;20044;-50
2022/01/06 05:56:03;;;;;;;3.15;0.90;;;21.10;30.40;;;;;;5052668;28;20102;-49
2022/01/06 05:58:29;;;;;;;1.90;0.73;;;21.10;30.40;;;;;;5052737;28;20091;-48
2022/01/06 06:00:56;;;;;;;2.33;0.90;;;21.10;31.10;;;;;;5052873;28;20032;-55
2022/01/06 06:03:22;;;;;;;2.17;0.80;;;21.10;30.50;;;;;;5052778;28;20446;-49
2022/01/06 06:05:48;;;;;;;2.45;0.50;;;21.10;30.50;;;;;;5053040;28;20028;-49
2022/01/06 06:08:14;;;;;;;2.63;0.90;;;21.10;30.50;;;;;;5056103;28;20032;-47
2022/01/06 06:10:40;;;;;;;2.10;0.80;;;21.10;30.40;;;;;;5039196;28;20432;-50
2022/01/06 06:13:06;;;;;;;2.47;0.80;;;21.10;30.50;;;;;;5056702;28;20428;-47
2022/01/06 06:15:35;;;;;;;2.67;0.80;;;21.00;30.40;;;;;;5056219;28;20701;-53
2022/01/06 06:18:02;;;;;;;1.60;0.80;;;21.00;30.40;;;;;;5056560;28;20032;-52
2022/01/06 06:20:28;;;;;;;2.35;1.10;;;21.00;30.40;;;;;;5056469;28;20040;-50
2022/01/06 06:22:54;;;;;;;2.45;0.80;;;21.00;30.50;;;;;;5056957;28;20021;-46
2022/01/06 06:25:20;;;;;;;1.20;0.57;;;21.00;30.50;;;;;;5056785;28;20389;-52
2022/01/06 06:27:45;;;;;;;2.33;0.75;;;21.00;30.50;;;;;;5056881;28;20025;-50
2022/01/06 06:30:12;;;;;;;2.05;0.77;;;21.00;30.50;;;;;;5056445;28;20017;-51
2022/01/06 06:32:39;;;;;;;2.55;0.93;;;21.00;30.60;;;;;;5057047;28;20435;-51
2022/01/06 06:35:05;;;;;;;2.88;0.98;;;21.00;30.60;;;;;;5056496;28;20021;-54
2022/01/06 06:37:32;;;;;;;1.75;0.60;;;21.00;30.60;;;;;;5056305;28;20106;-52
2022/01/06 06:39:58;;;;;;;2.33;0.82;;;21.00;30.50;;;;;;5056484;28;20040;-50
2022/01/06 06:42:25;;;;;;;2.03;0.90;;;21.00;30.50;;;;;;5056621;28;20476;-49
2022/01/06 06:44:51;;;;;;;2.30;0.90;;;21.00;30.50;;;;;;5056573;28;20110;-51
2022/01/06 06:47:17;;;;;;;2.30;0.75;;;21.00;30.50;;;;;;5056304;28;20044;-47
2022/01/06 06:49:44;;;;;;;3.50;0.68;;;21.00;30.50;;;;;;5056694;28;20044;-48
2022/01/06 06:52:10;;;;;;;1.20;0.63;;;21.00;30.40;;;;;;5021141;28;20044;-50
2022/01/06 06:54:36;;;;;;;2.42;1.00;;;21.00;30.40;;;;;;5056110;28;20021;-50
2022/01/06 06:57:02;;;;;;;2.33;0.90;;;21.00;30.50;;;;;;5054309;28;20017;-51
2022/01/06 06:59:29;;;;;;;3.13;1.08;;;21.00;30.40;;;;;;5054795;28;20506;-52
2022/01/06 07:01:56;;;;;;;1.85;0.90;;;21.00;30.40;;;;;;5055526;28;20025;-49
2022/01/06 07:04:22;;;;;;;1.90;0.88;;;21.00;30.40;;;;;;5039220;28;20490;-51
2022/01/06 07:06:47;;;;;;;2.38;0.80;;;21.00;30.40;;;;;;5055953;28;20025;-56
2022/01/06 07:09:15;;;;;;;2.13;1.00;;;21.00;30.40;;;;;;5055761;28;20028;-53
2022/01/06 07:11:41;;;;;;;1.73;0.70;;;21.00;30.40;;;;;;5056137;28;20043;-50
2022/01/06 07:14:07;;;;;;;2.67;1.00;;;21.00;30.40;;;;;;5053379;28;20096;-50
2022/01/06 07:16:33;;;;;;;1.58;0.80;;;20.90;30.40;;;;;;5037990;28;20039;-48
2022/01/06 07:18:59;;;;;;;1.80;0.80;;;20.90;30.40;;;;;;5055248;28;20021;-50
2022/01/06 07:21:25;;;;;;;2.10;0.85;;;20.90;30.40;;;;;;5056731;28;20029;-51
2022/01/06 07:23:52;;;;;;;2.97;1.20;;;20.90;30.50;;;;;;5056984;28;20024;-47
2022/01/06 07:26:18;;;;;;;3.22;0.90;;;20.90;30.50;;;;;;5055696;28;20108;-51
2022/01/06 07:28:44;;;;;;;1.88;0.82;;;20.90;30.50;;;;;;5055619;28;20025;-50
2022/01/06 07:31:10;;;;;;;2.58;1.00;;;20.90;30.50;;;;;;5055589;28;20021;-51
2022/01/06 07:33:36;;;;;;;2.30;1.13;;;20.90;30.50;;;;;;5037950;28;20088;-51
2022/01/06 07:36:03;;;;;;;2.33;0.80;;;20.90;30.50;;;;;;5037445;28;20029;-52
2022/01/06 07:38:28;;;;;;;2.03;0.95;;;20.90;30.50;;;;;;5056680;28;20052;-49
2022/01/06 07:40:55;;;;;;;1.80;0.75;;;20.90;30.50;;;;;;5055371;28;20169;-46
2022/01/06 07:43:24;;;;;;;2.35;0.90;;;20.90;30.50;;;;;;5056677;28;20376;-49
2022/01/06 07:45:50;;;;;;;1.70;0.70;;;20.90;30.60;;;;;;5053977;28;20040;-55
2022/01/06 07:48:18;;;;;;;2.42;0.90;;;20.90;30.60;;;;;;5055835;28;20021;-53
2022/01/06 07:50:46;;;;;;;4.15;1.13;;;20.90;30.70;;;;;;5055219;28;20029;-56
2022/01/06 07:53:12;;;;;;;6.32;1.27;;;20.90;30.80;;;;;;5055907;28;20045;-54
2022/01/06 07:55:38;;;;;;;1.90;1.00;;;20.90;31.00;;;;;;5054867;28;20099;-59
2022/01/06 07:58:07;;;;;;;2.95;1.00;;;21.00;31.10;;;;;;5055776;28;20395;-58
2022/01/06 08:00:33;;;;;;;1.70;0.85;;;21.10;31.30;;;;;;5050029;28;20033;-58
2022/01/06 08:02:59;;;;;;;2.40;0.98;;;21.20;31.40;;;;;;5056556;28;20083;-57
2022/01/06 08:05:27;;;;;;;4.53;1.38;;;21.30;31.40;;;;;;5052648;28;20029;-60
2022/01/06 08:07:56;;;;;;;2.53;1.00;;;21.40;31.40;;;;;;5056009;28;20459;-53
2022/01/06 08:10:23;;;;;;;2.85;0.90;;;21.50;31.40;;;;;;5055656;28;20028;-51
2022/01/06 08:12:49;;;;;;;2.55;1.20;;;21.70;31.50;;;;;;5055666;28;20056;-52
2022/01/06 08:15:15;;;;;;;2.17;0.90;;;21.80;31.40;;;;;;5056194;28;20444;-49
2022/01/06 08:17:41;;;;;;;2.35;0.95;;;21.90;31.30;;;;;;5056140;28;20059;-50
2022/01/06 08:20:09;;;;;;;2.25;0.90;;;22.00;31.10;;;;;;5055444;28;20048;-52
2022/01/06 08:22:35;;;;;;;2.22;0.77;;;22.10;30.90;;;;;;5037818;28;20017;-48
2022/01/06 08:25:05;;;;;;;2.13;0.88;;;22.10;30.70;;;;;;5056548;28;20108;-49
2022/01/06 08:27:31;;;;;;;2.08;1.00;;;22.20;30.60;;;;;;5056340;28;20024;-50
2022/01/06 08:29:57;;;;;;;2.75;0.90;;;22.30;30.50;;;;;;5054838;28;20021;-50
2022/01/06 08:32:22;;;;;;;2.83;1.00;;;22.40;30.40;;;;;;5054861;28;20117;-53
2022/01/06 08:34:48;;;;;;;2.00;1.02;;;22.40;30.20;;;;;;5038540;28;20053;-51
2022/01/06 08:37:14;;;;;;;2.65;0.90;;;22.50;30.10;;;;;;5054746;28;20036;-48
2022/01/06 08:39:40;;;;;;;2.05;0.90;;;22.60;30.10;;;;;;5055834;28;20079;-52
2022/01/06 08:42:06;;;;;;;1.98;0.85;;;22.60;30.00;;;;;;5035133;28;20122;-53
2022/01/06 08:44:32;;;;;;;2.55;1.25;;;22.70;30.00;;;;;;5054800;28;20024;-50
2022/01/06 08:47:00;;;;;;;2.17;0.98;;;22.70;29.90;;;;;;5054345;28;20045;-51
2022/01/06 08:49:26;;;;;;;2.20;1.10;;;22.80;29.90;;;;;;5054842;28;20104;-54
2022/01/06 08:51:52;;;;;;;3.03;1.20;;;22.90;29.80;;;;;;5054134;28;20033;-46
2022/01/06 08:54:18;;;;;;;2.20;1.10;;;22.90;29.70;;;;;;5054226;28;20096;-49
2022/01/06 08:56:44;;;;;;;2.33;0.88;;;23.00;29.70;;;;;;5054184;28;20041;-51
2022/01/06 08:59:10;;;;;;;1.50;0.82;;;23.00;29.60;;;;;;5037203;28;20128;-47
2022/01/06 09:01:35;;;;;;;2.38;1.00;;;23.10;29.60;;;;;;5053981;28;20024;-47
2022/01/06 09:04:01;;;;;;;4.05;1.10;;;23.10;29.50;;;;;;5054566;28;20082;-51
2022/01/06 09:06:27;;;;;;;2.50;1.10;;;23.20;29.50;;;;;;5054813;28;20401;-52
2022/01/06 09:08:53;;;;;;;3.05;1.27;;;23.30;29.40;;;;;;5051823;28;20049;-48
2022/01/06 09:11:19;;;;;;;2.85;1.10;;;23.30;29.30;;;;;;5055107;28;20021;-45
2022/01/06 09:13:45;;;;;;;2.15;0.98;;;23.40;29.30;;;;;;5054892;28;20028;-47
2022/01/06 09:16:11;;;;;;;2.28;1.15;;;23.40;29.20;;;;;;5054169;28;20074;-51
2022/01/06 09:18:36;;;;;;;2.60;1.20;;;23.50;29.30;;;;;;5055179;28;20021;-52
2022/01/06 09:21:06;;;;;;;1.95;0.82;;;23.50;29.20;;;;;;5055133;28;20106;-46
2022/01/06 09:23:32;;;;;;;2.30;1.05;;;23.60;29.10;;;;;;5055198;28;20032;-48
2022/01/06 09:25:58;;;;;;;2.08;1.05;;;23.60;29.00;;;;;;5054765;28;20025;-49
2022/01/06 09:28:24;;;;;;;1.85;0.90;;;23.70;29.00;;;;;;5037820;28;20336;-47
2022/01/06 09:30:51;;;;;;;2.95;1.10;;;23.70;29.00;;;;;;5055118;28;20025;-49
2022/01/06 09:33:18;;;;;;;2.28;1.08;;;23.80;29.00;;;;;;5055137;28;20056;-49
2022/01/06 09:35:45;;;;;;;3.08;1.25;;;23.80;28.90;;;;;;5054709;28;20073;-47
2022/01/06 09:38:11;;;;;;;3.35;1.52;;;23.80;28.90;;;;;;5054911;28;20020;-49
2022/01/06 09:40:41;;;;;;;2.75;1.70;;;23.90;28.90;;;;;;5054222;28;20064;-55
2022/01/06 09:43:07;;;;;;;3.13;2.20;;;23.80;28.90;;;;;;5054417;28;20320;-56
2022/01/06 09:45:34;;;;;;;3.03;1.80;;;23.90;28.90;;;;;;5041387;28;20038;-53
2022/01/06 09:48:00;;;;;;;3.63;2.22;;;23.90;28.90;;;;;;5054879;28;20029;-51
2022/01/06 09:50:26;;;;;;;4.00;2.38;;;23.90;28.90;;;;;;5055185;28;20029;-54
2022/01/06 09:52:52;;;;;;;3.67;2.05;;;23.90;28.90;;;;;;5054834;28;20044;-50
2022/01/06 09:55:19;;;;;;;3.53;2.47;;;23.90;28.80;;;;;;5054197;28;20095;-51
2022/01/06 09:57:57;;;;;;;3.45;2.10;;;23.90;28.80;;;;;;5053746;28;20032;-53
2022/01/06 10:00:24;;;;;;;4.10;2.40;;;23.80;28.70;;;;;;5052646;28;20041;-55
2022/01/06 10:03:12;;;;;;;3.53;2.30;;;23.80;28.80;;;;;;5053867;28;20452;-48
2022/01/06 10:05:51;;;;;;;2.95;1.98;;;23.70;28.70;;;;;;5046580;28;20025;-48
2022/01/06 10:08:28;;;;;;;3.30;2.08;;;23.60;28.80;;;;;;5053778;28;20021;-48
2022/01/06 10:11:14;;;;;;;2.95;1.63;;;23.60;28.80;;;;;;5053438;28;20352;-50
2022/01/06 10:13:42;;;;;;;3.17;1.90;;;23.50;28.80;;;;;;5053795;28;20025;-51
2022/01/06 10:16:17;;;;;;;3.35;1.70;;;23.50;29.00;;;;;;5051668;28;20068;-51
2022/01/06 10:19:07;;;;;;;3.13;1.50;;;23.50;29.00;;;;;;5054126;28;20029;-50
2022/01/06 10:21:45;;;;;;;3.15;1.55;;;23.50;29.00;;;;;;5054050;28;20094;-51
2022/01/06 10:24:12;;;;;;;2.40;1.40;;;23.40;29.00;;;;;;5054173;28;20029;-51
2022/01/06 10:26:51;;;;;;;3.00;1.50;;;23.40;29.00;;;;;;5053683;28;20035;-46
2022/01/06 10:29:18;;;;;;;2.63;1.20;;;23.40;29.00;;;;;;5053741;28;20028;-49
2022/01/06 10:31:44;;;;;;;2.58;1.25;;;23.40;29.00;;;;;;5053461;28;20024;-43
2022/01/06 10:34:09;;;;;;;2.88;1.40;;;23.30;29.00;;;;;;5054000;28;20028;-45
2022/01/06 10:36:36;;;;;;;3.55;1.10;;;23.30;29.10;;;;;;5053926;28;20043;-50
2022/01/06 10:39:06;;;;;;;3.83;1.20;;;23.20;29.10;;;;;;5053117;28;20398;-54
2022/01/06 10:41:32;;;;;;;2.03;1.20;;;23.20;29.20;;;;;;5054137;28;20083;-59
2022/01/06 10:44:00;;;;;;;2.17;1.05;;;23.20;29.30;;;;;;5053564;28;20025;-50
2022/01/06 10:46:33;;;;;;;2.55;1.23;;;23.20;29.40;;;;;;5053497;28;20045;-53
2022/01/06 10:49:08;;;;;;;3.47;1.10;;;23.20;29.40;;;;;;5053129;28;20090;-54
2022/01/06 10:51:35;;;;;;;2.67;1.38;;;23.10;29.40;;;;;;5053937;28;20037;-55
2022/01/06 10:54:23;;;;;;;2.55;1.20;;;23.10;29.40;;;;;;5056018;28;20025;-53
2022/01/06 10:57:02;;;;;;;1.20;0.80;;;23.10;29.50;;;;;;5056663;28;20472;-51
2022/01/06 10:59:32;;;;;;;2.53;1.35;;;23.10;29.50;;;;;;5057536;28;20409;-52
2022/01/06 11:01:59;;;;;;;8.95;1.77;;;23.00;29.50;;;;;;5055672;28;20028;-53
2022/01/06 11:04:25;;;;;;;3.13;1.05;;;23.00;29.50;;;;;;5057414;28;20052;-58
2022/01/06 11:06:52;;;;;;;2.80;1.08;;;23.00;29.50;;;;;;5055891;28;20071;-50
2022/01/06 11:09:19;;;;;;;3.05;1.45;;;23.00;29.60;;;;;;5057059;28;20052;-53
2022/01/06 11:14:15;;;;;;;2.10;1.00;;;23.00;29.70;;;;;;5056668;28;20336;-48
2022/01/06 11:16:43;;;;;;;2.95;1.13;;;23.00;30.20;;;;;;5057005;28;20032;-54
2022/01/06 11:19:11;;;;;;;3.28;1.40;;;22.90;29.70;;;;;;5056725;28;20136;-53
2022/01/06 11:21:43;;;;;;;2.83;1.13;;;22.90;29.70;;;;;;5057103;28;20112;-51
2022/01/06 11:24:16;;;;;;;2.33;1.10;;;22.90;29.70;;;;;;5056047;28;20021;-51
2022/01/06 11:26:55;;;;;;;1.83;1.00;;;22.90;29.70;;;;;;5037172;28;20347;-47
2022/01/06 11:29:30;;;;;;;3.17;1.10;;;22.90;29.70;;;;;;5047056;28;20021;-54
2022/01/06 11:31:55;;;;;;;2.20;1.00;;;22.90;29.70;;;;;;5054276;28;20094;-50
2022/01/06 11:34:22;;;;;;;2.42;1.15;;;22.80;29.70;;;;;;5054893;28;20057;-48
2022/01/06 11:36:54;;;;;;;2.35;1.10;;;22.80;29.70;;;;;;5055473;28;20025;-56
2022/01/06 11:39:30;;;;;;;3.08;1.05;;;22.90;29.80;;;;;;5055878;28;20057;-54
2022/01/06 11:41:58;;;;;;;3.20;0.98;;;22.80;29.80;;;;;;5055779;28;20028;-47
2022/01/06 11:44:29;;;;;;;3.58;1.10;;;22.80;29.80;;;;;;5052563;28;20017;-51
2022/01/06 11:46:58;;;;;;;2.72;1.13;;;22.80;29.80;;;;;;5056499;28;20372;-52
2022/01/06 11:49:42;;;;;;;3.40;1.38;;;22.80;29.90;;;;;;5055824;28;20112;-50
2022/01/06 11:52:11;;;;;;;2.38;1.02;;;22.80;29.80;;;;;;5056258;28;20037;-44
2022/01/06 11:54:51;;;;;;;1.65;0.93;;;22.80;29.80;;;;;;5056068;28;20056;-50
2022/01/06 11:57:34;;;;;;;2.45;1.20;;;22.80;29.80;;;;;;5038713;28;20036;-52
2022/01/06 12:00:13;;;;;;;1.60;0.85;;;22.80;29.80;;;;;;5055884;28;20416;-53
2022/01/06 12:02:39;;;;;;;3.55;1.20;;;22.70;29.80;;;;;;5055802;28;20016;-49
2022/01/06 12:05:05;;;;;;;2.28;1.10;;;22.80;29.80;;;;;;5055617;28;20048;-47
2022/01/06 12:07:31;;;;;;;3.00;1.00;;;22.80;29.80;;;;;;5056096;28;20313;-51
2022/01/06 12:10:09;;;;;;;2.17;1.15;;;22.80;29.80;;;;;;5055624;28;20443;-48
2022/01/06 12:12:39;;;;;;;2.30;1.00;;;22.70;29.80;;;;;;5056109;28;20036;-50
2022/01/06 12:15:17;;;;;;;3.22;0.95;;;22.70;29.80;;;;;;5055093;28;20025;-53
2022/01/06 12:17:52;;;;;;;2.20;1.08;;;22.70;29.80;;;;;;5055986;28;20424;-49
2022/01/06 12:20:30;;;;;;;1.58;0.90;;;22.70;29.80;;;;;;5054949;28;20037;-50
2022/01/06 12:22:57;;;;;;;2.42;0.90;;;22.70;29.80;;;;;;5055276;28;20029;-48
2022/01/06 12:25:27;;;;;;;2.15;0.98;;;22.70;30.00;;;;;;5055510;28;20384;-57
2022/01/06 12:27:56;;;;;;;3.20;0.95;;;22.70;30.30;;;;;;5054023;28;20032;-58
2022/01/06 12:30:29;;;;;;;2.63;1.05;;;22.80;30.60;;;;;;5036798;28;20043;-53
2022/01/06 12:33:02;;;;;;;0.88;0.60;;;22.80;30.90;;;;;;5055217;28;20025;-53
2022/01/06 12:35:40;;;;;;;2.67;1.10;;;22.90;31.10;;;;;;5054683;28;20118;-54
2022/01/06 12:38:07;;;;;;;1.67;0.82;;;22.90;31.30;;;;;;5053440;28;20078;-54
2022/01/06 12:40:42;;;;;;;1.63;0.80;;;23.00;31.30;;;;;;5054152;28;20124;-54
2022/01/06 12:43:26;;;;;;;1.77;0.80;;;23.00;31.40;;;;;;5051779;28;20428;-54
2022/01/06 12:46:16;;;;;;;2.15;0.82;;;23.00;31.40;;;;;;5054909;28;20124;-57
2022/01/06 12:48:44;;;;;;;2.33;0.93;;;23.00;31.30;;;;;;5055281;28;20390;-53
2022/01/06 12:51:16;;;;;;;2.75;1.05;;;23.00;31.30;;;;;;5054032;28;20013;-51
2022/01/06 12:53:44;;;;;;;2.05;0.90;;;23.10;31.30;;;;;;5052583;28;20025;-56
2022/01/06 12:56:25;;;;;;;2.22;0.80;;;23.10;31.40;;;;;;5053427;28;20049;-51
2022/01/06 12:58:51;;;;;;;2.72;0.70;;;23.10;31.40;;;;;;5051627;28;20020;-56
2022/01/06 13:01:19;;;;;;;1.65;0.75;;;23.10;31.50;;;;;;5052384;28;20413;-51
2022/01/06 13:03:51;;;;;;;3.42;0.75;;;23.10;31.50;;;;;;5053543;28;20098;-57
2022/01/06 13:06:17;;;;;;;1.58;0.90;;;23.10;31.60;;;;;;5052195;28;20379;-56